Date,TemperatureHighF,TemperatureAvgF,TemperatureLowF,DewpointHighF,DewpointAvgF,DewpointLowF,HumidityHigh,HumidityAvg,HumidityLow,PressureMaxIn,PressureMinIn,WindSpeedMaxMPH,WindSpeedAvgMPH,GustSpeedMaxMPH,PrecipitationSumIn
2013-2-1,34.4,25.7,21.6,21.6,19.3,17.2,84,77,58,30.49,30.45,1,0,1,0.00
2013-2-2,45.7,36.7,26.4,30.8,27.5,23.6,89,71,49,30.54,30.39,1,0,2,0.00
2013-2-3,56.9,38.2,25.7,29.2,24.3,20.4,89,62,24,30.42,30.23,8,1,13,0.00
2013-2-4,35.6,29.0,21.0,26.6,23.2,17.3,88,79,68,30.38,30.11,1,0,4,0.00
2013-2-5,47.6,29.6,26.4,27.1,23.8,16.1,85,80,28,30.16,30.00,7,0,8,0.00
2013-2-6,50.4,28.8,18.0,16.9,13.2,11.4,78,58,23,30.29,30.14,1,0,2,0.00
2013-2-7,47.7,35.8,27.2,27.1,11.7,-9.5,74,44,9,30.01,29.88,15,6,25,0.00
2013-2-8,32.9,32.3,31.5,17.9,17.2,16.6,56,53,51,30.04,30.02,13,11,15,0.00
2013-2-9,35.2,34.7,34.4,16.0,15.6,15.0,46,45,45,30.17,30.17,2,1,13,0.00
2013-2-10,26.1,23.1,20.3,17.0,13.4,12.0,71,66,60,30.31,30.27,2,0,6,0.00
2013-2-11,24.1,17.2,12.4,14.7,10.9,7.4,83,76,66,30.45,30.27,1,0,2,0.00
2013-2-12,35.9,20.8,15.9,19.8,13.0,10.0,80,73,51,30.60,30.49,1,0,2,0.00
2013-2-13,38.3,27.2,18.3,22.2,19.0,14.0,86,72,52,30.60,30.40,4,0,7,0.00
2013-2-14,50.5,27.5,18.6,26.5,19.5,14.3,87,75,38,30.60,30.39,5,1,8,0.00
2013-2-15,30.6,22.7,19.1,25.2,19.3,15.6,89,87,81,30.65,30.61,1,0,8,0.00
2013-2-16,38.5,38.5,38.5,24.1,24.1,24.1,56,56,56,30.39,30.39,0,0,1,0.00
2013-2-17,49.9,43.5,36.0,21.9,19.4,17.8,50,39,28,30.14,30.08,2,1,6,0.00
2013-2-18,54.7,43.0,25.3,21.4,19.0,15.5,77,40,21,30.18,29.86,14,2,18,0.00
2013-2-19,38.2,35.2,28.4,21.0,19.2,12.6,62,52,43,29.72,29.66,13,9,17,0.00
2013-2-20,30.4,26.1,24.1,19.9,15.0,11.0,77,63,49,30.08,30.00,2,0,4,0.00
2013-2-21,25.4,24.6,23.6,21.5,20.6,19.5,85,84,84,30.18,30.16,2,1,2,0.00
2013-2-23,38.2,36.3,32.8,6.3,5.4,4.3,32,27,24,30.21,30.12,14,11,18,0.00
2013-2-25,49.4,30.8,19.2,21.3,13.4,9.0,68,50,22,30.39,30.21,8,2,10,0.00
2013-2-26,25.6,19.3,15.1,13.8,10.4,8.3,78,69,49,30.48,30.44,1,0,4,0.00
2013-2-27,37.0,28.0,12.9,12.2,9.5,4.6,71,47,28,30.61,30.42,4,0,6,0.00
2013-2-28,26.4,24.1,23.2,14.4,12.9,12.1,63,62,60,30.58,30.54,0,0,0,0.00